Saratoga, CA

12:42 PM PDT on March 23, 2017 (GMT -0700)
Scotland Dr. near Glasgow Dr. | | Change Station

Elev 375 ft 37.27 °N, 122.02 °W | Updated 7 seconds ago

Mostly Cloudy
Mostly Cloudy
59.9 °F
Feels Like 59.9 °F
N
0.1
Wind Variable Wind from East
Gusts 3.5 mph

Today
High -- | Low -- °F
--% Chance of Precip.
Yesterday
High -- | Low -- °F
Precip. -- in
Pressure 30.24 in
Visibility 10.0 miles
Clouds Few 3200 ft
Mostly Cloudy 3600 ft
Mostly Cloudy 10000 ft
Dew Point 47 °F
Humidity 62%
Rainfall 0.00 in
Snow Depth Not available.
7:06 AM 7:22 PM
Waning Crescent, 21% visible
METAR KSJC 231853Z 32003KT 10SM FEW032 BKN036 BKN100 14/06 A3024 RMK AO2 SLP240 T01440061
Pressure 30.24 in
Visibility 10.0 miles
Clouds Few 3200 ft
Mostly Cloudy 3600 ft
Mostly Cloudy 10000 ft
Dew Point 47 °F
Humidity 62%
Rainfall 0.00 in
Snow Depth Not available.
7:06 AM 7:22 PM
Waning Crescent, 21% visible
METAR KSJC 231853Z 32003KT 10SM FEW032 BKN036 BKN100 14/06 A3024 RMK AO2 SLP240 T01440061

Get Severe Weather Alerts

Thanks for signing up!

Be on the lookout for a verification email in your inbox.

You'll start receiving the daily forecast at 8 AM.

×

10-Day Weather Forecast

Almanac

Astronomy

Mar. 23, 2017 Rise Set
Actual Time
Civil Twilight
Nautical Twilight
Astronomical Twilight
Moon
Length of Visible Light
Length of Day
Tomorrow will be .
, % of the Moon is Illuminated

Today's Extremes

State Highs State Lows

Community

WunderPhotos

Upload Photos

1,962,540 photos uploaded!

WunderBlog® & News

Nearby

Air Quality

  Air Quality AQ Index Pollutant
Not available.

Snow Depth

Station Depth Elevation

Earthquake Activity

City Distance Mag. Time & Date
Minimum magnitude displayed is 2.5.

Earthquake Activity

City Distance Mag. Time & Date
Minimum magnitude displayed is 2.5.

Coastal Water Temperatures

Place Temperature

Stations

Nearby Weather Stations

Station Location Temp. Windchill Dew Point Humidity Wind Precip. Elev Updated Type
                   

Watches & Warnings

There are currently no watches in effect.